sensor_id;sensor_type;location;lat;lon;timestamp;P1;durP1;ratioP1;P2;durP2;ratioP2
7487;SDS011;3785;52.260;4.728;2022-09-09T00:00:14;2.55;;;1.30;;
7487;SDS011;3785;52.260;4.728;2022-09-09T00:03:50;2.25;;;1.10;;
7487;SDS011;3785;52.260;4.728;2022-09-09T00:10:58;2.47;;;1.27;;
7487;SDS011;3785;52.260;4.728;2022-09-09T00:14:23;1.90;;;1.25;;
7487;SDS011;3785;52.260;4.728;2022-09-09T00:21:15;3.03;;;2.15;;
7487;SDS011;3785;52.260;4.728;2022-09-09T00:27:58;2.75;;;1.88;;
7487;SDS011;3785;52.260;4.728;2022-09-09T00:31:29;3.10;;;2.00;;
7487;SDS011;3785;52.260;4.728;2022-09-09T00:34:52;3.70;;;2.13;;
7487;SDS011;3785;52.260;4.728;2022-09-09T00:38:27;4.65;;;2.45;;
7487;SDS011;3785;52.260;4.728;2022-09-09T00:42:06;4.18;;;2.58;;
7487;SDS011;3785;52.260;4.728;2022-09-09T00:53:12;5.25;;;2.78;;
7487;SDS011;3785;52.260;4.728;2022-09-09T00:56:57;4.97;;;2.63;;
7487;SDS011;3785;52.260;4.728;2022-09-09T01:00:30;5.10;;;2.95;;
7487;SDS011;3785;52.260;4.728;2022-09-09T01:03:56;4.47;;;2.83;;
7487;SDS011;3785;52.260;4.728;2022-09-09T01:07:20;3.90;;;2.67;;
7487;SDS011;3785;52.260;4.728;2022-09-09T01:10:43;5.10;;;3.30;;
7487;SDS011;3785;52.260;4.728;2022-09-09T01:14:20;5.03;;;3.78;;
7487;SDS011;3785;52.260;4.728;2022-09-09T01:18:10;5.95;;;3.20;;
7487;SDS011;3785;52.260;4.728;2022-09-09T01:21:35;4.93;;;3.03;;
7487;SDS011;3785;52.260;4.728;2022-09-09T01:29:00;7.03;;;3.47;;
7487;SDS011;3785;52.260;4.728;2022-09-09T01:36:06;6.90;;;4.03;;
7487;SDS011;3785;52.260;4.728;2022-09-09T01:39:30;5.03;;;3.67;;
7487;SDS011;3785;52.260;4.728;2022-09-09T01:42:52;7.63;;;4.90;;
7487;SDS011;3785;52.260;4.728;2022-09-09T01:46:13;6.90;;;4.43;;
7487;SDS011;3785;52.260;4.728;2022-09-09T01:49:34;7.72;;;5.63;;
7487;SDS011;3785;52.260;4.728;2022-09-09T01:52:56;7.28;;;5.30;;
7487;SDS011;3785;52.260;4.728;2022-09-09T02:00:03;9.50;;;5.43;;
7487;SDS011;3785;52.260;4.728;2022-09-09T02:03:27;9.05;;;5.15;;
7487;SDS011;3785;52.260;4.728;2022-09-09T02:06:48;5.93;;;4.43;;
7487;SDS011;3785;52.260;4.728;2022-09-09T02:10:19;6.78;;;3.88;;
7487;SDS011;3785;52.260;4.728;2022-09-09T02:13:48;5.60;;;4.35;;
7487;SDS011;3785;52.260;4.728;2022-09-09T02:17:11;7.57;;;4.72;;
7487;SDS011;3785;52.260;4.728;2022-09-09T02:20:34;6.00;;;4.30;;
7487;SDS011;3785;52.260;4.728;2022-09-09T02:23:58;6.18;;;4.25;;
7487;SDS011;3785;52.260;4.728;2022-09-09T02:27:19;6.35;;;3.70;;
7487;SDS011;3785;52.260;4.728;2022-09-09T02:30:41;5.72;;;3.97;;
7487;SDS011;3785;52.260;4.728;2022-09-09T02:34:04;6.90;;;4.60;;
7487;SDS011;3785;52.260;4.728;2022-09-09T02:37:31;6.72;;;3.95;;
7487;SDS011;3785;52.260;4.728;2022-09-09T02:40:56;5.10;;;3.97;;
7487;SDS011;3785;52.260;4.728;2022-09-09T02:44:18;4.82;;;3.20;;
7487;SDS011;3785;52.260;4.728;2022-09-09T02:47:41;5.00;;;3.75;;
7487;SDS011;3785;52.260;4.728;2022-09-09T02:54:44;5.63;;;3.78;;
7487;SDS011;3785;52.260;4.728;2022-09-09T02:58:05;4.78;;;3.28;;
7487;SDS011;3785;52.260;4.728;2022-09-09T03:01:27;5.97;;;3.72;;
7487;SDS011;3785;52.260;4.728;2022-09-09T03:04:48;6.35;;;4.07;;
7487;SDS011;3785;52.260;4.728;2022-09-09T03:08:11;5.43;;;3.50;;
7487;SDS011;3785;52.260;4.728;2022-09-09T03:11:33;6.63;;;3.90;;
7487;SDS011;3785;52.260;4.728;2022-09-09T03:14:53;7.32;;;3.80;;
7487;SDS011;3785;52.260;4.728;2022-09-09T03:18:14;4.25;;;3.03;;
7487;SDS011;3785;52.260;4.728;2022-09-09T03:21:34;7.22;;;3.88;;
7487;SDS011;3785;52.260;4.728;2022-09-09T03:24:55;5.82;;;4.03;;
7487;SDS011;3785;52.260;4.728;2022-09-09T03:28:16;5.10;;;3.38;;
7487;SDS011;3785;52.260;4.728;2022-09-09T03:31:37;8.32;;;4.18;;
7487;SDS011;3785;52.260;4.728;2022-09-09T03:34:57;4.93;;;3.63;;
7487;SDS011;3785;52.260;4.728;2022-09-09T03:38:18;5.40;;;3.55;;
7487;SDS011;3785;52.260;4.728;2022-09-09T03:41:38;5.40;;;3.33;;
7487;SDS011;3785;52.260;4.728;2022-09-09T03:44:59;6.20;;;3.75;;
7487;SDS011;3785;52.260;4.728;2022-09-09T03:48:19;7.13;;;3.97;;
7487;SDS011;3785;52.260;4.728;2022-09-09T03:51:40;6.28;;;3.55;;
7487;SDS011;3785;52.260;4.728;2022-09-09T03:55:01;6.90;;;4.05;;
7487;SDS011;3785;52.260;4.728;2022-09-09T03:58:22;6.30;;;3.58;;
7487;SDS011;3785;52.260;4.728;2022-09-09T04:01:44;6.78;;;3.47;;
7487;SDS011;3785;52.260;4.728;2022-09-09T04:05:05;5.45;;;3.63;;
7487;SDS011;3785;52.260;4.728;2022-09-09T04:08:26;6.07;;;3.75;;
7487;SDS011;3785;52.260;4.728;2022-09-09T04:11:47;5.75;;;3.65;;
7487;SDS011;3785;52.260;4.728;2022-09-09T04:15:08;5.43;;;3.75;;
7487;SDS011;3785;52.260;4.728;2022-09-09T04:18:30;6.85;;;3.65;;
7487;SDS011;3785;52.260;4.728;2022-09-09T04:21:51;5.47;;;3.85;;
7487;SDS011;3785;52.260;4.728;2022-09-09T04:25:11;4.85;;;3.38;;
7487;SDS011;3785;52.260;4.728;2022-09-09T04:28:33;6.22;;;3.50;;
7487;SDS011;3785;52.260;4.728;2022-09-09T04:31:55;8.30;;;3.60;;
7487;SDS011;3785;52.260;4.728;2022-09-09T04:35:15;5.40;;;3.22;;
7487;SDS011;3785;52.260;4.728;2022-09-09T04:38:36;5.13;;;2.97;;
7487;SDS011;3785;52.260;4.728;2022-09-09T04:41:57;6.50;;;3.17;;
7487;SDS011;3785;52.260;4.728;2022-09-09T04:45:17;4.57;;;2.75;;
7487;SDS011;3785;52.260;4.728;2022-09-09T04:48:38;4.38;;;2.85;;
7487;SDS011;3785;52.260;4.728;2022-09-09T04:51:59;3.90;;;2.60;;
7487;SDS011;3785;52.260;4.728;2022-09-09T04:55:21;5.35;;;2.90;;
7487;SDS011;3785;52.260;4.728;2022-09-09T04:58:41;5.18;;;2.88;;
7487;SDS011;3785;52.260;4.728;2022-09-09T05:02:05;4.43;;;2.75;;
7487;SDS011;3785;52.260;4.728;2022-09-09T05:05:26;3.63;;;2.58;;
7487;SDS011;3785;52.260;4.728;2022-09-09T05:08:48;5.47;;;2.50;;
7487;SDS011;3785;52.260;4.728;2022-09-09T05:12:09;3.30;;;2.10;;
7487;SDS011;3785;52.260;4.728;2022-09-09T05:15:31;3.42;;;2.15;;
7487;SDS011;3785;52.260;4.728;2022-09-09T05:18:51;3.45;;;1.77;;
7487;SDS011;3785;52.260;4.728;2022-09-09T05:22:12;3.42;;;1.92;;
7487;SDS011;3785;52.260;4.728;2022-09-09T05:25:32;3.25;;;2.00;;
7487;SDS011;3785;52.260;4.728;2022-09-09T05:28:53;4.05;;;2.28;;
7487;SDS011;3785;52.260;4.728;2022-09-09T05:32:13;4.15;;;1.90;;
7487;SDS011;3785;52.260;4.728;2022-09-09T05:35:36;4.63;;;2.30;;
7487;SDS011;3785;52.260;4.728;2022-09-09T05:38:57;4.97;;;2.47;;
7487;SDS011;3785;52.260;4.728;2022-09-09T05:42:18;2.97;;;1.80;;
7487;SDS011;3785;52.260;4.728;2022-09-09T05:45:39;5.80;;;1.83;;
7487;SDS011;3785;52.260;4.728;2022-09-09T05:48:59;2.63;;;2.08;;
7487;SDS011;3785;52.260;4.728;2022-09-09T05:52:20;3.00;;;2.00;;
7487;SDS011;3785;52.260;4.728;2022-09-09T05:55:41;3.97;;;1.75;;
7487;SDS011;3785;52.260;4.728;2022-09-09T05:59:02;2.25;;;1.75;;
7487;SDS011;3785;52.260;4.728;2022-09-09T06:02:22;4.35;;;1.65;;
7487;SDS011;3785;52.260;4.728;2022-09-09T06:05:43;3.42;;;1.58;;
7487;SDS011;3785;52.260;4.728;2022-09-09T06:09:04;4.47;;;1.90;;
7487;SDS011;3785;52.260;4.728;2022-09-09T06:12:29;3.55;;;1.77;;
7487;SDS011;3785;52.260;4.728;2022-09-09T06:15:50;2.80;;;1.75;;
7487;SDS011;3785;52.260;4.728;2022-09-09T06:19:12;3.03;;;1.75;;
7487;SDS011;3785;52.260;4.728;2022-09-09T06:22:33;3.78;;;1.75;;
7487;SDS011;3785;52.260;4.728;2022-09-09T06:26:04;2.97;;;1.60;;
7487;SDS011;3785;52.260;4.728;2022-09-09T06:29:26;5.57;;;1.50;;
7487;SDS011;3785;52.260;4.728;2022-09-09T06:32:46;2.80;;;1.45;;
7487;SDS011;3785;52.260;4.728;2022-09-09T06:36:10;2.95;;;1.48;;
7487;SDS011;3785;52.260;4.728;2022-09-09T06:39:35;2.15;;;1.42;;
7487;SDS011;3785;52.260;4.728;2022-09-09T06:42:59;3.55;;;1.67;;
7487;SDS011;3785;52.260;4.728;2022-09-09T06:46:22;2.28;;;1.23;;
7487;SDS011;3785;52.260;4.728;2022-09-09T06:49:43;4.05;;;1.83;;
7487;SDS011;3785;52.260;4.728;2022-09-09T06:53:04;4.25;;;1.73;;
7487;SDS011;3785;52.260;4.728;2022-09-09T06:56:25;2.88;;;1.45;;
7487;SDS011;3785;52.260;4.728;2022-09-09T06:59:49;5.50;;;1.45;;
7487;SDS011;3785;52.260;4.728;2022-09-09T07:03:10;4.35;;;1.90;;
7487;SDS011;3785;52.260;4.728;2022-09-09T07:06:31;3.90;;;1.77;;
7487;SDS011;3785;52.260;4.728;2022-09-09T07:09:54;2.85;;;1.92;;
7487;SDS011;3785;52.260;4.728;2022-09-09T07:13:15;4.85;;;2.03;;
7487;SDS011;3785;52.260;4.728;2022-09-09T07:16:36;4.65;;;2.10;;
7487;SDS011;3785;52.260;4.728;2022-09-09T07:19:59;5.95;;;2.38;;
7487;SDS011;3785;52.260;4.728;2022-09-09T07:23:20;3.33;;;1.80;;
7487;SDS011;3785;52.260;4.728;2022-09-09T07:26:40;2.70;;;1.50;;
7487;SDS011;3785;52.260;4.728;2022-09-09T07:30:01;5.65;;;2.20;;
7487;SDS011;3785;52.260;4.728;2022-09-09T07:33:23;3.33;;;1.73;;
7487;SDS011;3785;52.260;4.728;2022-09-09T07:36:44;6.18;;;2.28;;
7487;SDS011;3785;52.260;4.728;2022-09-09T07:40:06;4.13;;;1.92;;
7487;SDS011;3785;52.260;4.728;2022-09-09T07:43:26;4.35;;;2.17;;
7487;SDS011;3785;52.260;4.728;2022-09-09T07:46:47;3.45;;;1.80;;
7487;SDS011;3785;52.260;4.728;2022-09-09T07:50:09;4.20;;;1.95;;
7487;SDS011;3785;52.260;4.728;2022-09-09T07:53:29;3.30;;;2.00;;
7487;SDS011;3785;52.260;4.728;2022-09-09T07:56:51;4.10;;;2.22;;
7487;SDS011;3785;52.260;4.728;2022-09-09T08:00:12;6.82;;;2.70;;
7487;SDS011;3785;52.260;4.728;2022-09-09T08:03:34;5.07;;;2.60;;
7487;SDS011;3785;52.260;4.728;2022-09-09T08:06:56;4.60;;;2.53;;
7487;SDS011;3785;52.260;4.728;2022-09-09T08:10:19;4.38;;;2.67;;
7487;SDS011;3785;52.260;4.728;2022-09-09T08:13:40;4.68;;;2.42;;
7487;SDS011;3785;52.260;4.728;2022-09-09T08:17:01;3.42;;;2.03;;
7487;SDS011;3785;52.260;4.728;2022-09-09T08:20:22;4.45;;;2.40;;
7487;SDS011;3785;52.260;4.728;2022-09-09T08:23:44;3.75;;;2.28;;
7487;SDS011;3785;52.260;4.728;2022-09-09T08:27:05;4.25;;;2.20;;
7487;SDS011;3785;52.260;4.728;2022-09-09T08:30:26;3.15;;;2.63;;
7487;SDS011;3785;52.260;4.728;2022-09-09T08:33:47;4.28;;;2.50;;
7487;SDS011;3785;52.260;4.728;2022-09-09T08:37:08;6.47;;;2.55;;
7487;SDS011;3785;52.260;4.728;2022-09-09T08:40:29;4.97;;;2.55;;
7487;SDS011;3785;52.260;4.728;2022-09-09T08:44:31;4.38;;;2.40;;
7487;SDS011;3785;52.260;4.728;2022-09-09T08:47:45;6.60;;;2.85;;
7487;SDS011;3785;52.260;4.728;2022-09-09T08:51:07;4.80;;;2.60;;
7487;SDS011;3785;52.260;4.728;2022-09-09T08:54:30;4.93;;;2.08;;
7487;SDS011;3785;52.260;4.728;2022-09-09T08:57:54;4.53;;;2.40;;
7487;SDS011;3785;52.260;4.728;2022-09-09T09:01:38;4.55;;;2.33;;
7487;SDS011;3785;52.260;4.728;2022-09-09T09:05:10;4.35;;;2.50;;
7487;SDS011;3785;52.260;4.728;2022-09-09T09:08:43;4.72;;;2.08;;
7487;SDS011;3785;52.260;4.728;2022-09-09T09:12:16;4.82;;;2.38;;
7487;SDS011;3785;52.260;4.728;2022-09-09T09:15:39;4.30;;;2.30;;
7487;SDS011;3785;52.260;4.728;2022-09-09T09:19:01;4.03;;;1.98;;
7487;SDS011;3785;52.260;4.728;2022-09-09T09:22:24;3.28;;;2.33;;
7487;SDS011;3785;52.260;4.728;2022-09-09T09:25:55;4.60;;;2.20;;
7487;SDS011;3785;52.260;4.728;2022-09-09T09:29:19;4.70;;;2.25;;
7487;SDS011;3785;52.260;4.728;2022-09-09T09:32:43;2.65;;;1.90;;
7487;SDS011;3785;52.260;4.728;2022-09-09T09:36:10;2.55;;;1.67;;
7487;SDS011;3785;52.260;4.728;2022-09-09T09:39:31;3.83;;;2.00;;
7487;SDS011;3785;52.260;4.728;2022-09-09T09:43:00;4.75;;;2.35;;
7487;SDS011;3785;52.260;4.728;2022-09-09T09:46:22;4.95;;;1.77;;
7487;SDS011;3785;52.260;4.728;2022-09-09T09:49:58;3.97;;;1.85;;
7487;SDS011;3785;52.260;4.728;2022-09-09T09:53:21;5.75;;;2.30;;
7487;SDS011;3785;52.260;4.728;2022-09-09T09:56:44;2.70;;;1.80;;
7487;SDS011;3785;52.260;4.728;2022-09-09T10:03:34;3.50;;;2.00;;
7487;SDS011;3785;52.260;4.728;2022-09-09T10:07:09;4.35;;;1.80;;
7487;SDS011;3785;52.260;4.728;2022-09-09T10:10:36;4.70;;;1.60;;
7487;SDS011;3785;52.260;4.728;2022-09-09T10:21:20;3.80;;;1.90;;
7487;SDS011;3785;52.260;4.728;2022-09-09T10:31:57;2.95;;;1.45;;
7487;SDS011;3785;52.260;4.728;2022-09-09T10:39:03;4.28;;;1.33;;
7487;SDS011;3785;52.260;4.728;2022-09-09T10:42:27;2.25;;;1.30;;
7487;SDS011;3785;52.260;4.728;2022-09-09T11:00:42;2.90;;;1.45;;
7487;SDS011;3785;52.260;4.728;2022-09-09T11:04:09;3.08;;;1.38;;
7487;SDS011;3785;52.260;4.728;2022-09-09T11:07:39;3.50;;;1.40;;
7487;SDS011;3785;52.260;4.728;2022-09-09T11:11:17;3.25;;;1.35;;
7487;SDS011;3785;52.260;4.728;2022-09-09T11:18:29;2.20;;;1.30;;
7487;SDS011;3785;52.260;4.728;2022-09-09T11:21:50;1.83;;;1.23;;
7487;SDS011;3785;52.260;4.728;2022-09-09T11:26:13;2.40;;;1.40;;
7487;SDS011;3785;52.260;4.728;2022-09-09T11:36:56;2.30;;;1.35;;
7487;SDS011;3785;52.260;4.728;2022-09-09T11:40:23;1.67;;;1.23;;
7487;SDS011;3785;52.260;4.728;2022-09-09T11:43:45;2.90;;;1.10;;
7487;SDS011;3785;52.260;4.728;2022-09-09T11:47:27;2.28;;;1.02;;
7487;SDS011;3785;52.260;4.728;2022-09-09T11:50:56;2.13;;;1.10;;
7487;SDS011;3785;52.260;4.728;2022-09-09T11:54:33;3.17;;;1.40;;
7487;SDS011;3785;52.260;4.728;2022-09-09T12:02:09;1.58;;;1.17;;
7487;SDS011;3785;52.260;4.728;2022-09-09T12:05:17;2.35;;;1.50;;
7487;SDS011;3785;52.260;4.728;2022-09-09T12:08:42;1.83;;;1.42;;
7487;SDS011;3785;52.260;4.728;2022-09-09T12:12:26;3.42;;;1.45;;
7487;SDS011;3785;52.260;4.728;2022-09-09T12:15:54;2.63;;;1.33;;
7487;SDS011;3785;52.260;4.728;2022-09-09T12:19:20;4.70;;;1.70;;
7487;SDS011;3785;52.260;4.728;2022-09-09T12:22:47;3.65;;;1.60;;
7487;SDS011;3785;52.260;4.728;2022-09-09T12:30:19;1.70;;;1.38;;
7487;SDS011;3785;52.260;4.728;2022-09-09T12:33:41;3.58;;;1.48;;
7487;SDS011;3785;52.260;4.728;2022-09-09T12:37:13;2.72;;;1.98;;
7487;SDS011;3785;52.260;4.728;2022-09-09T12:40:38;3.65;;;2.10;;
7487;SDS011;3785;52.260;4.728;2022-09-09T12:44:03;3.08;;;1.90;;
7487;SDS011;3785;52.260;4.728;2022-09-09T12:51:07;3.33;;;1.83;;
7487;SDS011;3785;52.260;4.728;2022-09-09T12:54:43;3.45;;;1.90;;
7487;SDS011;3785;52.260;4.728;2022-09-09T12:58:06;3.13;;;2.45;;
7487;SDS011;3785;52.260;4.728;2022-09-09T13:01:31;3.70;;;2.30;;
7487;SDS011;3785;52.260;4.728;2022-09-09T13:04:53;3.58;;;2.00;;
7487;SDS011;3785;52.260;4.728;2022-09-09T13:08:15;4.05;;;2.42;;
7487;SDS011;3785;52.260;4.728;2022-09-09T13:11:44;3.20;;;2.03;;
7487;SDS011;3785;52.260;4.728;2022-09-09T13:15:14;2.72;;;1.90;;
7487;SDS011;3785;52.260;4.728;2022-09-09T13:18:40;2.35;;;1.50;;
7487;SDS011;3785;52.260;4.728;2022-09-09T13:22:12;2.33;;;1.20;;
7487;SDS011;3785;52.260;4.728;2022-09-09T13:25:33;1.75;;;1.17;;
7487;SDS011;3785;52.260;4.728;2022-09-09T13:28:55;2.45;;;1.30;;
7487;SDS011;3785;52.260;4.728;2022-09-09T13:32:27;3.20;;;1.60;;
7487;SDS011;3785;52.260;4.728;2022-09-09T13:35:58;2.95;;;1.23;;
7487;SDS011;3785;52.260;4.728;2022-09-09T13:39:22;2.15;;;1.13;;
7487;SDS011;3785;52.260;4.728;2022-09-09T13:42:44;2.78;;;1.30;;
7487;SDS011;3785;52.260;4.728;2022-09-09T13:46:20;2.20;;;1.10;;
7487;SDS011;3785;52.260;4.728;2022-09-09T13:53:42;1.75;;;1.00;;
7487;SDS011;3785;52.260;4.728;2022-09-09T13:57:02;2.75;;;1.27;;
7487;SDS011;3785;52.260;4.728;2022-09-09T14:00:24;1.55;;;0.90;;
7487;SDS011;3785;52.260;4.728;2022-09-09T14:03:45;1.35;;;0.90;;
7487;SDS011;3785;52.260;4.728;2022-09-09T14:07:05;2.85;;;1.20;;
7487;SDS011;3785;52.260;4.728;2022-09-09T14:10:27;1.17;;;0.82;;
7487;SDS011;3785;52.260;4.728;2022-09-09T14:13:48;1.80;;;0.98;;
7487;SDS011;3785;52.260;4.728;2022-09-09T14:17:12;1.92;;;0.70;;
7487;SDS011;3785;52.260;4.728;2022-09-09T14:20:32;2.65;;;0.85;;
7487;SDS011;3785;52.260;4.728;2022-09-09T14:23:53;1.63;;;0.70;;
7487;SDS011;3785;52.260;4.728;2022-09-09T14:27:13;1.88;;;0.57;;
7487;SDS011;3785;52.260;4.728;2022-09-09T14:30:34;1.27;;;0.60;;
7487;SDS011;3785;52.260;4.728;2022-09-09T14:33:56;1.80;;;0.70;;
7487;SDS011;3785;52.260;4.728;2022-09-09T14:37:17;0.60;;;0.35;;
7487;SDS011;3785;52.260;4.728;2022-09-09T14:40:38;0.57;;;0.30;;
7487;SDS011;3785;52.260;4.728;2022-09-09T14:43:59;0.15;;;0.10;;
7487;SDS011;3785;52.260;4.728;2022-09-09T14:47:20;1.00;;;0.40;;
7487;SDS011;3785;52.260;4.728;2022-09-09T14:50:41;0.57;;;0.45;;
7487;SDS011;3785;52.260;4.728;2022-09-09T14:54:01;0.50;;;0.30;;
7487;SDS011;3785;52.260;4.728;2022-09-09T14:57:22;0.28;;;0.20;;
7487;SDS011;3785;52.260;4.728;2022-09-09T15:00:46;1.65;;;0.40;;
7487;SDS011;3785;52.260;4.728;2022-09-09T15:04:07;1.60;;;0.60;;
7487;SDS011;3785;52.260;4.728;2022-09-09T15:07:28;0.77;;;0.47;;
7487;SDS011;3785;52.260;4.728;2022-09-09T15:10:48;1.63;;;0.47;;
7487;SDS011;3785;52.260;4.728;2022-09-09T15:14:10;1.20;;;0.57;;
7487;SDS011;3785;52.260;4.728;2022-09-09T15:17:32;2.33;;;0.55;;
7487;SDS011;3785;52.260;4.728;2022-09-09T15:20:52;1.70;;;0.73;;
7487;SDS011;3785;52.260;4.728;2022-09-09T15:24:13;1.55;;;0.60;;
7487;SDS011;3785;52.260;4.728;2022-09-09T15:27:33;4.25;;;0.68;;
7487;SDS011;3785;52.260;4.728;2022-09-09T15:30:54;2.10;;;0.80;;
7487;SDS011;3785;52.260;4.728;2022-09-09T15:34:15;1.83;;;0.80;;
7487;SDS011;3785;52.260;4.728;2022-09-09T15:37:35;0.95;;;0.70;;
7487;SDS011;3785;52.260;4.728;2022-09-09T15:40:56;4.35;;;1.70;;
7487;SDS011;3785;52.260;4.728;2022-09-09T15:44:18;3.22;;;0.75;;
7487;SDS011;3785;52.260;4.728;2022-09-09T15:47:39;1.33;;;0.77;;
7487;SDS011;3785;52.260;4.728;2022-09-09T15:51:02;2.10;;;0.52;;
7487;SDS011;3785;52.260;4.728;2022-09-09T15:54:24;0.65;;;0.50;;
7487;SDS011;3785;52.260;4.728;2022-09-09T15:57:46;2.38;;;0.90;;
7487;SDS011;3785;52.260;4.728;2022-09-09T16:01:07;2.53;;;0.77;;
7487;SDS011;3785;52.260;4.728;2022-09-09T16:04:28;1.25;;;0.55;;
7487;SDS011;3785;52.260;4.728;2022-09-09T16:07:51;1.05;;;0.65;;
7487;SDS011;3785;52.260;4.728;2022-09-09T16:11:13;1.35;;;0.55;;
7487;SDS011;3785;52.260;4.728;2022-09-09T16:14:35;2.15;;;0.80;;
7487;SDS011;3785;52.260;4.728;2022-09-09T16:17:56;1.30;;;0.70;;
7487;SDS011;3785;52.260;4.728;2022-09-09T16:21:22;2.05;;;0.90;;
7487;SDS011;3785;52.260;4.728;2022-09-09T16:24:45;2.70;;;0.88;;
7487;SDS011;3785;52.260;4.728;2022-09-09T16:28:06;1.20;;;0.60;;
7487;SDS011;3785;52.260;4.728;2022-09-09T16:31:27;3.53;;;1.33;;
7487;SDS011;3785;52.260;4.728;2022-09-09T16:34:48;1.33;;;0.80;;
7487;SDS011;3785;52.260;4.728;2022-09-09T16:38:08;2.10;;;0.95;;
7487;SDS011;3785;52.260;4.728;2022-09-09T16:41:29;2.70;;;0.98;;
7487;SDS011;3785;52.260;4.728;2022-09-09T16:44:50;2.35;;;0.90;;
7487;SDS011;3785;52.260;4.728;2022-09-09T16:48:11;1.35;;;0.80;;
7487;SDS011;3785;52.260;4.728;2022-09-09T16:51:36;1.25;;;0.93;;
7487;SDS011;3785;52.260;4.728;2022-09-09T16:54:58;4.78;;;1.38;;
7487;SDS011;3785;52.260;4.728;2022-09-09T16:58:18;2.42;;;1.42;;
7487;SDS011;3785;52.260;4.728;2022-09-09T17:01:40;3.45;;;1.33;;
7487;SDS011;3785;52.260;4.728;2022-09-09T17:05:01;2.25;;;1.60;;
7487;SDS011;3785;52.260;4.728;2022-09-09T17:08:21;2.92;;;1.70;;
7487;SDS011;3785;52.260;4.728;2022-09-09T17:11:42;4.20;;;1.85;;
7487;SDS011;3785;52.260;4.728;2022-09-09T17:15:04;4.75;;;2.13;;
7487;SDS011;3785;52.260;4.728;2022-09-09T17:18:26;2.92;;;2.03;;
7487;SDS011;3785;52.260;4.728;2022-09-09T17:21:48;5.53;;;2.30;;
7487;SDS011;3785;52.260;4.728;2022-09-09T17:25:09;3.22;;;2.13;;
7487;SDS011;3785;52.260;4.728;2022-09-09T17:28:30;5.03;;;2.67;;
7487;SDS011;3785;52.260;4.728;2022-09-09T17:31:51;4.20;;;2.92;;
7487;SDS011;3785;52.260;4.728;2022-09-09T17:35:11;5.50;;;2.90;;
7487;SDS011;3785;52.260;4.728;2022-09-09T17:38:32;6.28;;;2.60;;
7487;SDS011;3785;52.260;4.728;2022-09-09T17:41:53;4.28;;;2.58;;
7487;SDS011;3785;52.260;4.728;2022-09-09T17:45:14;4.95;;;2.70;;
7487;SDS011;3785;52.260;4.728;2022-09-09T17:48:35;4.50;;;3.10;;
7487;SDS011;3785;52.260;4.728;2022-09-09T17:51:56;5.38;;;3.47;;
7487;SDS011;3785;52.260;4.728;2022-09-09T17:55:17;4.68;;;3.13;;
7487;SDS011;3785;52.260;4.728;2022-09-09T17:58:38;5.10;;;2.95;;
7487;SDS011;3785;52.260;4.728;2022-09-09T18:01:59;4.72;;;3.63;;
7487;SDS011;3785;52.260;4.728;2022-09-09T18:05:25;6.78;;;3.15;;
7487;SDS011;3785;52.260;4.728;2022-09-09T18:08:47;7.18;;;2.55;;
7487;SDS011;3785;52.260;4.728;2022-09-09T18:12:12;4.47;;;2.70;;
7487;SDS011;3785;52.260;4.728;2022-09-09T18:15:35;3.85;;;2.38;;
7487;SDS011;3785;52.260;4.728;2022-09-09T18:18:56;5.82;;;2.80;;
7487;SDS011;3785;52.260;4.728;2022-09-09T18:22:18;4.78;;;2.25;;
7487;SDS011;3785;52.260;4.728;2022-09-09T18:25:39;3.53;;;1.98;;
7487;SDS011;3785;52.260;4.728;2022-09-09T18:29:02;3.08;;;1.90;;
7487;SDS011;3785;52.260;4.728;2022-09-09T18:32:25;3.13;;;1.80;;
7487;SDS011;3785;52.260;4.728;2022-09-09T18:35:47;2.58;;;1.73;;
7487;SDS011;3785;52.260;4.728;2022-09-09T18:39:08;4.13;;;2.30;;
7487;SDS011;3785;52.260;4.728;2022-09-09T18:42:29;6.50;;;2.17;;
7487;SDS011;3785;52.260;4.728;2022-09-09T18:45:49;3.65;;;2.17;;
7487;SDS011;3785;52.260;4.728;2022-09-09T18:49:10;3.22;;;2.17;;
7487;SDS011;3785;52.260;4.728;2022-09-09T18:52:31;6.00;;;2.80;;
7487;SDS011;3785;52.260;4.728;2022-09-09T18:56:05;5.70;;;2.92;;
7487;SDS011;3785;52.260;4.728;2022-09-09T18:59:27;5.68;;;2.65;;
7487;SDS011;3785;52.260;4.728;2022-09-09T19:02:48;4.93;;;3.10;;
7487;SDS011;3785;52.260;4.728;2022-09-09T19:06:13;7.35;;;3.75;;
7487;SDS011;3785;52.260;4.728;2022-09-09T19:09:34;8.15;;;4.40;;
7487;SDS011;3785;52.260;4.728;2022-09-09T19:12:55;4.68;;;2.67;;
7487;SDS011;3785;52.260;4.728;2022-09-09T19:16:16;3.72;;;2.38;;
7487;SDS011;3785;52.260;4.728;2022-09-09T19:19:36;4.32;;;2.30;;
7487;SDS011;3785;52.260;4.728;2022-09-09T19:22:57;4.80;;;2.53;;
7487;SDS011;3785;52.260;4.728;2022-09-09T19:26:18;5.22;;;1.85;;
7487;SDS011;3785;52.260;4.728;2022-09-09T19:29:39;4.28;;;2.13;;
7487;SDS011;3785;52.260;4.728;2022-09-09T19:33:01;4.90;;;1.90;;
7487;SDS011;3785;52.260;4.728;2022-09-09T19:36:23;4.10;;;2.08;;
7487;SDS011;3785;52.260;4.728;2022-09-09T19:39:46;4.38;;;1.70;;
7487;SDS011;3785;52.260;4.728;2022-09-09T19:43:08;3.78;;;1.60;;
7487;SDS011;3785;52.260;4.728;2022-09-09T19:46:31;3.58;;;1.40;;
7487;SDS011;3785;52.260;4.728;2022-09-09T19:49:54;2.90;;;1.48;;
7487;SDS011;3785;52.260;4.728;2022-09-09T19:53:14;2.47;;;1.38;;
7487;SDS011;3785;52.260;4.728;2022-09-09T19:56:37;2.58;;;1.40;;
7487;SDS011;3785;52.260;4.728;2022-09-09T19:59:58;2.03;;;1.40;;
7487;SDS011;3785;52.260;4.728;2022-09-09T20:03:19;3.80;;;2.30;;
7487;SDS011;3785;52.260;4.728;2022-09-09T20:06:41;5.68;;;2.38;;
7487;SDS011;3785;52.260;4.728;2022-09-09T20:10:05;6.50;;;2.42;;
7487;SDS011;3785;52.260;4.728;2022-09-09T20:13:30;5.57;;;2.47;;
7487;SDS011;3785;52.260;4.728;2022-09-09T20:16:51;5.47;;;2.42;;
7487;SDS011;3785;52.260;4.728;2022-09-09T20:20:12;3.83;;;2.13;;
7487;SDS011;3785;52.260;4.728;2022-09-09T20:23:33;5.63;;;2.10;;
7487;SDS011;3785;52.260;4.728;2022-09-09T20:26:54;4.78;;;2.30;;
7487;SDS011;3785;52.260;4.728;2022-09-09T20:30:15;3.90;;;2.58;;
7487;SDS011;3785;52.260;4.728;2022-09-09T20:33:36;3.15;;;2.00;;
7487;SDS011;3785;52.260;4.728;2022-09-09T20:36:57;3.85;;;2.15;;
7487;SDS011;3785;52.260;4.728;2022-09-09T20:40:21;6.70;;;2.45;;
7487;SDS011;3785;52.260;4.728;2022-09-09T20:43:46;5.93;;;2.95;;
7487;SDS011;3785;52.260;4.728;2022-09-09T20:47:32;4.32;;;2.55;;
7487;SDS011;3785;52.260;4.728;2022-09-09T20:50:53;5.13;;;2.13;;
7487;SDS011;3785;52.260;4.728;2022-09-09T20:54:15;5.10;;;2.85;;
7487;SDS011;3785;52.260;4.728;2022-09-09T20:57:42;4.90;;;2.47;;
7487;SDS011;3785;52.260;4.728;2022-09-09T21:01:05;6.05;;;3.53;;
7487;SDS011;3785;52.260;4.728;2022-09-09T21:04:26;5.70;;;2.60;;
7487;SDS011;3785;52.260;4.728;2022-09-09T21:07:47;5.90;;;2.33;;
7487;SDS011;3785;52.260;4.728;2022-09-09T21:11:08;5.18;;;2.33;;
7487;SDS011;3785;52.260;4.728;2022-09-09T21:14:29;3.47;;;2.05;;
7487;SDS011;3785;52.260;4.728;2022-09-09T21:17:51;5.50;;;2.28;;
7487;SDS011;3785;52.260;4.728;2022-09-09T21:21:13;3.75;;;1.95;;
7487;SDS011;3785;52.260;4.728;2022-09-09T21:24:35;3.33;;;1.75;;
7487;SDS011;3785;52.260;4.728;2022-09-09T21:27:57;6.05;;;2.53;;
7487;SDS011;3785;52.260;4.728;2022-09-09T21:31:18;6.15;;;2.45;;
7487;SDS011;3785;52.260;4.728;2022-09-09T21:34:38;4.45;;;2.42;;
7487;SDS011;3785;52.260;4.728;2022-09-09T21:38:01;4.60;;;2.80;;
7487;SDS011;3785;52.260;4.728;2022-09-09T21:41:25;4.50;;;2.30;;
7487;SDS011;3785;52.260;4.728;2022-09-09T21:44:45;4.18;;;2.30;;
7487;SDS011;3785;52.260;4.728;2022-09-09T21:48:10;5.65;;;2.33;;
7487;SDS011;3785;52.260;4.728;2022-09-09T21:51:32;4.18;;;2.42;;
7487;SDS011;3785;52.260;4.728;2022-09-09T21:54:52;4.78;;;3.45;;
7487;SDS011;3785;52.260;4.728;2022-09-09T21:58:13;6.90;;;4.25;;
7487;SDS011;3785;52.260;4.728;2022-09-09T22:01:34;5.85;;;3.50;;
7487;SDS011;3785;52.260;4.728;2022-09-09T22:04:55;7.57;;;3.60;;
7487;SDS011;3785;52.260;4.728;2022-09-09T22:08:16;5.90;;;3.40;;
7487;SDS011;3785;52.260;4.728;2022-09-09T22:11:37;6.55;;;3.40;;
7487;SDS011;3785;52.260;4.728;2022-09-09T22:14:57;5.30;;;2.90;;
7487;SDS011;3785;52.260;4.728;2022-09-09T22:18:18;5.68;;;2.92;;
7487;SDS011;3785;52.260;4.728;2022-09-09T22:21:38;4.03;;;2.95;;
7487;SDS011;3785;52.260;4.728;2022-09-09T22:24:59;3.30;;;2.67;;
7487;SDS011;3785;52.260;4.728;2022-09-09T22:28:19;6.03;;;3.88;;
7487;SDS011;3785;52.260;4.728;2022-09-09T22:31:41;5.28;;;2.53;;
7487;SDS011;3785;52.260;4.728;2022-09-09T22:35:02;2.97;;;2.28;;
7487;SDS011;3785;52.260;4.728;2022-09-09T22:38:23;4.93;;;2.17;;